Glasgow, West Virginia
Current Conditions -  °F | °C
As of 1:54 PM on Friday 28 Nov 2014 (Local Time) from KCRW Reporting Station
Overcast Overcast  
Wind Chill: 25°   Ceiling: 3300
Heat Index: 31°   Visibility: 10mi
Dew Point: 18°   Wind: 6mph
Humidity: 59%   Direction: 240°WSW
Pressure: 30.31"   Gusts: NA
Location:  38.22°N, 81.42°W
Report Text: KCRW 281854Z 24005KT 10SM OVC033 M01/M08 A3031 RMK AO2 SLP273 OCNL BINOVC T10061078
Loading
Personal Weather Stations






























Interactive Weather Map New forecast layout! Learn more

10-Day Weather Forecast

Advertisements
Track Severe Weather on mobile